createdAt,value
2023-04-23T00:02:59.385Z,6.40
2023-04-23T00:08:02.870Z,5.45
2023-04-23T00:13:04.224Z,6.10
2023-04-23T00:18:05.019Z,6.40
2023-04-23T00:23:06.940Z,6.10
2023-04-23T00:28:07.619Z,6.07
2023-04-23T00:33:08.256Z,6.32
2023-04-23T00:38:10.509Z,5.88
2023-04-23T00:43:11.642Z,5.75
2023-04-23T00:48:13.350Z,5.45
2023-04-23T00:53:15.415Z,5.72
2023-04-23T00:58:16.045Z,5.80
2023-04-23T01:03:18.482Z,5.82
2023-04-23T01:08:22.563Z,4.82
2023-04-23T01:13:26.577Z,6.15
2023-04-23T01:18:27.658Z,5.20
2023-04-23T01:23:29.752Z,4.97
2023-04-23T01:28:31.241Z,4.80
2023-04-23T01:33:32.743Z,5.30
2023-04-23T01:38:36.896Z,5.13
2023-04-23T01:43:38.200Z,4.55
2023-04-23T01:48:39.541Z,5.10
2023-04-23T01:53:41.447Z,5.13
2023-04-23T01:58:42.330Z,5.93
2023-04-23T02:03:43.147Z,5.38
2023-04-23T02:08:45.319Z,5.43
2023-04-23T02:13:45.966Z,5.38
2023-04-23T02:18:46.568Z,5.35
2023-04-23T02:23:48.546Z,5.38
2023-04-23T02:28:49.274Z,5.70
2023-04-23T02:33:49.977Z,5.30
2023-04-23T02:38:52.004Z,5.32
2023-04-23T02:43:52.616Z,5.15
2023-04-23T02:48:53.235Z,4.82
2023-04-23T02:53:56.332Z,5.30
2023-04-23T02:58:56.991Z,5.28
2023-04-23T03:03:57.781Z,5.63
2023-04-23T03:09:00.019Z,5.18
2023-04-23T03:14:00.790Z,4.72
2023-04-23T03:19:01.940Z,4.57
2023-04-23T03:24:03.985Z,4.93
2023-04-23T03:29:06.260Z,5.10
2023-04-23T03:34:07.046Z,5.15
2023-04-23T03:39:11.044Z,4.47
2023-04-23T03:44:24.479Z,4.68
2023-04-23T03:49:27.405Z,5.05
2023-04-23T03:54:30.766Z,4.75
2023-04-23T03:59:47.336Z,4.97
2023-04-23T04:04:49.900Z,4.60
2023-04-23T04:09:52.243Z,4.63
2023-04-23T04:14:52.846Z,5.57
2023-04-23T04:19:53.444Z,4.97
2023-04-23T04:24:56.177Z,4.38
2023-04-23T04:29:56.793Z,5.95
2023-04-23T04:34:58.131Z,4.85
2023-04-23T04:40:01.442Z,4.30
2023-04-23T04:45:02.116Z,4.70
2023-04-23T04:50:02.936Z,4.72
2023-04-23T04:55:06.810Z,4.80
2023-04-23T05:00:22.517Z,5.10
2023-04-23T05:05:24.527Z,5.15
2023-04-23T05:10:26.819Z,4.85
2023-04-23T05:15:27.650Z,4.72
2023-04-23T05:20:28.323Z,4.32
2023-04-23T05:25:30.954Z,4.57
2023-04-23T05:30:31.700Z,4.45
2023-04-23T05:35:32.304Z,4.82
2023-04-23T05:40:34.413Z,4.82
2023-04-23T05:45:35.048Z,5.43
2023-04-23T05:50:35.770Z,4.90
2023-04-23T05:55:37.733Z,4.82
2023-04-23T06:00:40.682Z,5.07
2023-04-23T06:05:43.253Z,5.50
2023-04-23T06:10:45.263Z,4.72
2023-04-23T06:15:45.873Z,4.32
2023-04-23T06:20:47.376Z,4.15
2023-04-23T06:25:49.318Z,4.47
2023-04-23T06:30:49.959Z,4.65
2023-04-23T06:35:50.846Z,4.50
2023-04-23T06:40:52.971Z,4.32
2023-04-23T06:45:53.624Z,4.07
2023-04-23T06:50:54.302Z,3.50
2023-04-23T06:55:56.247Z,3.97
2023-04-23T07:00:57.224Z,3.78
2023-04-23T07:05:58.359Z,3.67
2023-04-23T07:11:00.390Z,3.83
2023-04-23T07:16:00.966Z,2.78
2023-04-23T07:21:01.625Z,1.92
2023-04-23T07:26:03.789Z,2.00
2023-04-23T07:31:04.443Z,3.10
2023-04-23T07:36:05.255Z,1.77
2023-04-23T07:41:07.272Z,2.00
2023-04-23T07:46:08.298Z,2.03
2023-04-23T07:51:10.097Z,1.58
2023-04-23T07:56:12.025Z,2.25
2023-04-23T08:01:12.715Z,1.77
2023-04-23T08:06:14.562Z,1.85
2023-04-23T08:11:16.579Z,1.77
2023-04-23T08:16:17.202Z,1.77
2023-04-23T08:21:17.869Z,1.35
2023-04-23T08:26:19.842Z,1.30
2023-04-23T08:31:26.384Z,1.23
2023-04-23T08:36:30.335Z,1.20
2023-04-23T08:41:36.344Z,1.20
2023-04-23T08:46:38.324Z,1.17
2023-04-23T08:51:42.268Z,0.98
2023-04-23T08:56:45.089Z,1.58
2023-04-23T09:01:45.737Z,2.05
2023-04-23T09:06:46.392Z,1.17
2023-04-23T09:11:48.525Z,1.00
2023-04-23T09:16:49.390Z,0.95
2023-04-23T09:21:51.259Z,1.02
2023-04-23T09:26:54.871Z,0.50
2023-04-23T09:31:57.474Z,0.82
2023-04-23T09:36:58.172Z,0.73
2023-04-23T09:42:04.965Z,1.00
2023-04-23T09:47:10.548Z,0.60
2023-04-23T09:52:11.185Z,0.60
2023-04-23T09:57:13.398Z,0.50
2023-04-23T10:02:14.240Z,0.70
2023-04-23T10:07:20.140Z,0.60
2023-04-23T10:17:26.901Z,0.68
2023-04-23T10:22:30.036Z,0.70
2023-04-23T10:27:40.371Z,0.60
2023-04-23T10:32:52.685Z,0.70
2023-04-23T10:37:54.106Z,0.57
2023-04-23T10:42:56.880Z,0.52
2023-04-23T10:47:57.577Z,0.98
2023-04-23T10:52:59.270Z,0.63
2023-04-23T10:58:03.222Z,0.70
2023-04-23T11:03:04.193Z,0.70
2023-04-23T11:13:26.092Z,0.70
2023-04-23T11:18:26.817Z,0.52
2023-04-23T11:23:33.035Z,0.98
2023-04-23T11:28:36.732Z,1.02
2023-04-23T11:33:39.373Z,0.95
2023-04-23T11:38:40.073Z,0.50
2023-04-23T11:43:43.511Z,0.68
2023-04-23T11:48:44.307Z,0.63
2023-04-23T11:53:47.305Z,0.70
2023-04-23T11:58:49.299Z,0.70
2023-04-23T12:03:50.425Z,0.77
2023-04-23T12:08:51.150Z,0.70
2023-04-23T12:13:54.051Z,0.75
2023-04-23T12:18:55.094Z,0.80
2023-04-23T12:23:55.833Z,1.10
2023-04-23T12:29:00.602Z,0.88
2023-04-23T12:34:04.114Z,0.70
2023-04-23T12:39:30.374Z,0.85
2023-04-23T12:44:34.458Z,0.88
2023-04-23T12:49:36.930Z,0.70
2023-04-23T12:54:39.076Z,0.80
2023-04-23T12:59:41.747Z,0.75
2023-04-23T13:04:42.646Z,0.70
2023-04-23T13:09:43.518Z,0.80
2023-04-23T13:14:45.653Z,0.82
2023-04-23T13:19:46.335Z,0.95
2023-04-23T13:24:46.938Z,0.80
2023-04-23T13:29:48.884Z,1.00
2023-04-23T13:34:49.606Z,1.48
2023-04-23T13:39:50.301Z,0.68
2023-04-23T13:44:52.520Z,0.90
2023-04-23T13:49:53.456Z,0.82
2023-04-23T13:54:54.707Z,0.73
2023-04-23T13:59:57.240Z,0.65
2023-04-23T14:04:58.465Z,0.80
2023-04-23T14:09:59.353Z,0.90
2023-04-23T14:15:01.364Z,0.93
2023-04-23T14:20:02.205Z,0.82
2023-04-23T14:25:04.558Z,0.90
2023-04-23T14:30:14.563Z,0.80
2023-04-23T14:35:15.626Z,0.70
2023-04-23T14:40:19.823Z,0.73
2023-04-23T14:45:21.805Z,1.23
2023-04-23T14:50:22.455Z,1.40
2023-04-23T14:55:23.363Z,1.40
2023-04-23T15:00:25.741Z,1.40
2023-04-23T15:05:26.687Z,1.50
2023-04-23T15:10:27.387Z,1.42
2023-04-23T15:15:44.335Z,1.63
2023-04-23T15:20:46.084Z,1.88
2023-04-23T15:25:46.807Z,1.65
2023-04-23T15:30:48.868Z,1.60
2023-04-23T15:35:51.082Z,2.00
2023-04-23T15:40:51.896Z,1.70
2023-04-23T15:45:55.578Z,1.65
2023-04-23T15:50:56.446Z,2.00
2023-04-23T15:55:57.521Z,2.20
2023-04-23T16:00:59.557Z,1.80
2023-04-23T16:06:00.263Z,1.75
2023-04-23T16:11:00.958Z,1.80
2023-04-23T16:16:03.303Z,2.10
2023-04-23T16:21:06.087Z,2.00
2023-04-23T16:26:08.776Z,2.10
2023-04-23T16:31:10.787Z,1.73
2023-04-23T16:36:13.003Z,7.45
2023-04-23T16:41:15.394Z,3.40
2023-04-23T16:46:17.682Z,4.40
2023-04-23T16:51:18.403Z,3.90
2023-04-23T16:56:19.247Z,1.60
2023-04-23T17:01:21.283Z,2.17
2023-04-23T17:06:27.184Z,2.88
2023-04-23T17:11:29.673Z,3.88
2023-04-23T17:16:31.743Z,4.95
2023-04-23T17:21:33.024Z,4.15
2023-04-23T17:26:34.075Z,3.33
2023-04-23T17:31:38.237Z,3.30
2023-04-23T17:36:39.290Z,2.67
2023-04-23T17:41:40.034Z,3.67
2023-04-23T17:46:42.025Z,2.33
2023-04-23T17:51:42.820Z,2.38
2023-04-23T17:56:43.430Z,2.20
2023-04-23T18:01:45.770Z,2.00
2023-04-23T18:06:46.499Z,2.10
2023-04-23T18:11:47.234Z,2.13
2023-04-23T18:16:49.330Z,1.95
2023-04-23T18:21:50.597Z,2.10
2023-04-23T18:26:52.166Z,1.80
2023-04-23T18:31:54.238Z,2.10
2023-04-23T18:36:56.110Z,1.75
2023-04-23T18:41:57.005Z,2.00
2023-04-23T18:47:00.934Z,2.03
2023-04-23T18:52:02.165Z,2.15
2023-04-23T18:57:03.021Z,2.30
2023-04-23T19:02:06.187Z,2.45
2023-04-23T19:07:06.964Z,2.53
2023-04-23T19:12:07.678Z,2.90
2023-04-23T19:17:09.686Z,2.38
2023-04-23T19:22:10.343Z,2.40
2023-04-23T19:27:11.017Z,2.30
2023-04-23T19:32:13.171Z,2.10
2023-04-23T19:37:13.768Z,2.30
2023-04-23T19:42:14.380Z,2.40
2023-04-23T19:47:17.159Z,2.25
2023-04-23T19:52:21.353Z,1.88
2023-04-23T19:57:22.333Z,1.88
2023-04-23T20:02:24.730Z,2.42
2023-04-23T20:07:25.408Z,4.38
2023-04-23T20:12:26.060Z,3.80
2023-04-23T20:17:29.982Z,2.30
2023-04-23T20:22:31.266Z,2.20
2023-04-23T20:27:32.166Z,2.28
2023-04-23T20:32:34.256Z,2.25
2023-04-23T20:37:35.267Z,2.15
2023-04-23T20:42:39.074Z,2.47
2023-04-23T20:47:41.592Z,2.15
2023-04-23T20:52:42.355Z,2.45
2023-04-23T20:57:43.051Z,2.50
2023-04-23T21:02:45.194Z,2.60
2023-04-23T21:07:45.955Z,2.67
2023-04-23T21:12:47.031Z,2.90
2023-04-23T21:17:49.054Z,2.95
2023-04-23T21:22:50.068Z,2.85
2023-04-23T21:27:50.724Z,2.67
2023-04-23T21:32:52.888Z,3.15
2023-04-23T21:37:53.722Z,3.17
2023-04-23T21:42:54.358Z,3.10
2023-04-23T21:47:56.908Z,2.92
2023-04-23T21:52:59.485Z,3.13
2023-04-23T21:58:15.774Z,3.70
2023-04-23T22:03:30.301Z,3.50
2023-04-23T22:08:40.697Z,3.70
2023-04-23T22:13:41.598Z,4.13
2023-04-23T22:18:44.639Z,3.85
2023-04-23T22:23:45.472Z,4.43
2023-04-23T22:28:46.256Z,4.60
2023-04-23T22:33:48.184Z,4.07
2023-04-23T22:38:48.815Z,4.07
2023-04-23T22:43:49.598Z,4.40
2023-04-23T22:48:53.555Z,4.68
2023-04-23T22:53:54.175Z,4.75
2023-04-23T22:58:55.801Z,4.85
2023-04-23T23:03:57.877Z,4.55
2023-04-23T23:08:58.971Z,4.97
2023-04-23T23:13:59.593Z,4.72
2023-04-23T23:19:01.582Z,4.45
2023-04-23T23:24:02.200Z,3.88
2023-04-23T23:29:02.816Z,4.15
2023-04-23T23:34:05.150Z,3.85
2023-04-23T23:39:06.664Z,4.00
2023-04-23T23:44:07.523Z,3.95
2023-04-23T23:49:09.505Z,3.55
2023-04-23T23:54:10.142Z,3.35
2023-04-23T23:59:10.754Z,3.65
